Terminal Aerodrome Forecast
Issued by NWS Chicago, IL

Home | Current Version | Previous Version | Text Only | Print | Product List | Glossary Off
Versions: 1 2 3 4 5 6 7 8 9 10 11 12 13 14 15 16 17 18 19 20 21 22 23 24 25 26 27 28 29

350
FTUS43 KLOT 191726
TAFRFD
TAF
KRFD 191726Z 1918/2018 14007KT 2SM BR OVC004
      TEMPO 1918/1919 1SM BR OVC002
     FM192200 11008KT 4SM -SHRA BR BKN006 OVC025
     FM200100 09007KT 2SM -RA BR OVC007
     FM200300 08007KT 1 1/2SM -SHRA BR VCTS OVC004CB
     FM200700 08005KT 1SM -DZ BR OVC003=

USA.gov is the U.S. government's official web portal to all federal, state and local government web resources and services.